Time;durP1;ratioP1;P1;durP2;ratioP2;P2;SDS_P1;SDS_P2;PMS_P1;PMS_P2;Temp;Humidity;BMP_temperature;BMP_pressure;BME280_temperature;BME280_humidity;BME280_pressure;Samples;Min_cycle;Max_cycle;Signal;HPM_P1;HPM_P2
2021/05/28 00:01:44;;;;;;;9.05;5.00;;;9.20;99.90;;;;;;5106153;28;20055;-41
2021/05/28 00:04:09;;;;;;;8.40;4.75;;;9.20;99.90;;;;;;5107349;28;20036;-41
2021/05/28 00:06:35;;;;;;;7.35;4.53;;;9.20;99.90;;;;;;5106836;28;20089;-41
2021/05/28 00:09:05;;;;;;;6.82;4.43;;;9.30;99.90;;;;;;5105960;28;20402;-41
2021/05/28 00:11:31;;;;;;;6.22;4.03;;;9.30;99.90;;;;;;5107230;28;20035;-41
2021/05/28 00:13:57;;;;;;;7.10;4.35;;;9.30;99.90;;;;;;5106883;28;20012;-40
2021/05/28 00:16:24;;;;;;;8.15;4.93;;;9.40;99.90;;;;;;5106656;28;20106;-40
2021/05/28 00:18:50;;;;;;;9.30;4.95;;;9.40;99.90;;;;;;5106596;28;20024;-40
2021/05/28 00:21:15;;;;;;;6.45;4.60;;;9.30;99.90;;;;;;5106600;28;20123;-41
2021/05/28 00:23:41;;;;;;;9.48;4.45;;;9.30;99.90;;;;;;5105828;28;20119;-41
2021/05/28 00:26:06;;;;;;;10.10;4.47;;;9.30;99.90;;;;;;5106886;28;20024;-41
2021/05/28 00:28:38;;;;;;;5.13;3.40;;;9.30;99.90;;;;;;5106340;28;20419;-41
2021/05/28 00:31:04;;;;;;;9.20;3.80;;;9.20;99.90;;;;;;5106409;28;20038;-40
2021/05/28 00:33:29;;;;;;;6.93;3.70;;;9.20;99.90;;;;;;5105792;28;20332;-40
2021/05/28 00:35:55;;;;;;;7.72;4.07;;;9.20;99.90;;;;;;5106588;28;20028;-41
2021/05/28 00:38:20;;;;;;;8.63;5.05;;;9.20;99.90;;;;;;5106720;28;20089;-41
2021/05/28 00:40:46;;;;;;;6.28;3.92;;;9.10;99.90;;;;;;5105792;28;20126;-42
2021/05/28 00:43:11;;;;;;;6.22;3.58;;;9.10;99.90;;;;;;5106327;28;20123;-41
2021/05/28 00:45:37;;;;;;;6.22;4.00;;;9.10;99.90;;;;;;5105857;28;20088;-41
2021/05/28 00:48:03;;;;;;;8.10;3.97;;;9.10;99.90;;;;;;5106541;28;20024;-41
2021/05/28 00:50:29;;;;;;;5.22;3.83;;;9.10;99.90;;;;;;5106331;28;20110;-39
2021/05/28 00:52:57;;;;;;;6.97;4.05;;;9.00;99.90;;;;;;5106702;28;20096;-39
2021/05/28 00:55:27;;;;;;;9.05;4.40;;;9.00;99.90;;;;;;5106576;28;20446;-40
2021/05/28 00:57:55;;;;;;;7.43;4.53;;;9.00;99.90;;;;;;5105431;28;20035;-41
2021/05/28 01:00:24;;;;;;;7.95;5.07;;;9.00;99.90;;;;;;5106152;28;20084;-41
2021/05/28 01:02:50;;;;;;;5.93;4.25;;;8.90;99.90;;;;;;5107386;28;20058;-42
2021/05/28 01:05:15;;;;;;;7.00;4.75;;;8.90;99.90;;;;;;5109901;28;20071;-41
2021/05/28 01:07:41;;;;;;;6.25;4.43;;;8.90;99.90;;;;;;5109582;28;20102;-41
2021/05/28 01:10:07;;;;;;;6.95;4.28;;;8.90;99.90;;;;;;5109900;28;20027;-41
2021/05/28 01:12:35;;;;;;;4.53;4.13;;;8.90;99.90;;;;;;5109672;28;20126;-40
2021/05/28 01:15:01;;;;;;;6.22;4.60;;;8.80;99.90;;;;;;5109601;28;20015;-40
2021/05/28 01:17:27;;;;;;;9.02;4.85;;;8.80;99.90;;;;;;5110052;27;20073;-41
2021/05/28 01:19:53;;;;;;;4.78;4.03;;;8.80;99.90;;;;;;5109529;28;20099;-41
2021/05/28 01:22:19;;;;;;;6.50;4.00;;;8.80;99.90;;;;;;5109818;28;20118;-41
2021/05/28 01:24:49;;;;;;;5.13;4.22;;;8.70;99.90;;;;;;5109330;28;20027;-40
2021/05/28 01:27:17;;;;;;;5.10;3.58;;;8.70;99.90;;;;;;5109232;28;20020;-40
2021/05/28 01:29:43;;;;;;;6.63;3.67;;;8.80;99.90;;;;;;5109579;28;20047;-40
2021/05/28 01:32:11;;;;;;;4.03;3.38;;;8.80;99.90;;;;;;5109145;28;20047;-40
2021/05/28 01:34:36;;;;;;;7.10;3.50;;;8.70;99.90;;;;;;5109224;28;20126;-40
2021/05/28 01:37:02;;;;;;;5.13;3.58;;;8.70;99.90;;;;;;5109708;28;20115;-39
2021/05/28 01:39:29;;;;;;;4.30;3.53;;;8.70;99.90;;;;;;5109184;28;20096;-40
2021/05/28 01:41:54;;;;;;;4.85;3.15;;;8.70;99.90;;;;;;5109081;28;20030;-39
2021/05/28 01:44:20;;;;;;;5.05;3.60;;;8.80;99.90;;;;;;5109524;28;20035;-40
2021/05/28 01:46:48;;;;;;;4.00;3.40;;;8.90;99.90;;;;;;5108328;28;20020;-40
2021/05/28 01:49:14;;;;;;;5.45;3.78;;;8.90;99.90;;;;;;5110125;28;20038;-40
2021/05/28 01:51:49;;;;;;;7.00;4.18;;;9.00;99.90;;;;;;5109041;28;20035;-37
2021/05/28 01:54:15;;;;;;;7.18;4.72;;;9.10;99.90;;;;;;5109138;28;20031;-41
2021/05/28 01:56:40;;;;;;;5.95;4.85;;;9.10;99.90;;;;;;5108704;28;20024;-41
2021/05/28 01:59:12;;;;;;;11.70;5.63;;;9.20;99.90;;;;;;5109611;28;20016;-41
2021/05/28 02:01:38;;;;;;;13.38;6.38;;;9.20;99.90;;;;;;5108345;28;20110;-40
2021/05/28 02:04:03;;;;;;;9.10;6.90;;;9.30;99.90;;;;;;5108892;28;20180;-39
2021/05/28 02:06:29;;;;;;;8.82;6.63;;;9.20;99.90;;;;;;5108673;28;20070;-40
2021/05/28 02:08:54;;;;;;;8.70;6.53;;;9.20;99.90;;;;;;5108483;28;20462;-39
2021/05/28 02:11:20;;;;;;;9.68;6.28;;;9.20;99.90;;;;;;5108626;28;20035;-38
2021/05/28 02:13:45;;;;;;;13.73;6.43;;;9.20;99.90;;;;;;5108160;28;20027;-39
2021/05/28 02:16:12;;;;;;;9.35;6.60;;;9.20;99.90;;;;;;5108526;28;20020;-39
2021/05/28 02:18:38;;;;;;;8.95;6.50;;;9.10;99.90;;;;;;5108485;28;20069;-37
2021/05/28 02:21:03;;;;;;;13.93;6.78;;;9.10;99.90;;;;;;5108971;28;20055;-39
2021/05/28 02:23:29;;;;;;;7.50;6.13;;;9.10;99.90;;;;;;5107725;28;20035;-41
2021/05/28 02:25:54;;;;;;;11.80;6.72;;;9.00;99.90;;;;;;5108339;28;20034;-40
2021/05/28 02:28:23;;;;;;;7.90;6.47;;;8.90;99.90;;;;;;5108505;28;20072;-39
2021/05/28 02:30:48;;;;;;;8.20;5.88;;;8.90;99.90;;;;;;5108226;28;20030;-41
2021/05/28 02:33:17;;;;;;;9.82;5.90;;;8.80;99.90;;;;;;5108423;28;20016;-39
2021/05/28 02:35:42;;;;;;;10.38;5.85;;;8.70;99.90;;;;;;5107356;28;20031;-39
2021/05/28 02:38:08;;;;;;;9.55;5.75;;;8.70;99.90;;;;;;5108270;28;20019;-40
2021/05/28 02:40:33;;;;;;;8.45;6.07;;;8.60;99.90;;;;;;5108664;28;20023;-39
2021/05/28 02:42:59;;;;;;;8.52;4.68;;;8.60;99.90;;;;;;5107483;28;20445;-40
2021/05/28 02:45:27;;;;;;;7.78;5.13;;;8.60;99.90;;;;;;5108655;28;20034;-40
2021/05/28 02:47:52;;;;;;;6.18;5.35;;;8.60;99.90;;;;;;5108092;28;20020;-40
2021/05/28 02:50:18;;;;;;;6.85;5.53;;;8.50;99.90;;;;;;5107989;28;20024;-45
2021/05/28 02:52:46;;;;;;;7.18;5.72;;;8.50;99.90;;;;;;5107292;28;20028;-41
2021/05/28 02:55:12;;;;;;;5.90;5.30;;;8.50;99.90;;;;;;5108297;28;20024;-41
2021/05/28 02:57:38;;;;;;;7.10;6.03;;;8.50;99.90;;;;;;5107799;28;20130;-41
2021/05/28 03:00:06;;;;;;;5.95;5.32;;;8.50;99.90;;;;;;5107489;28;20118;-40
2021/05/28 03:02:35;;;;;;;8.05;5.53;;;8.50;99.90;;;;;;5107831;28;20024;-40
2021/05/28 03:05:00;;;;;;;6.95;5.80;;;8.50;99.90;;;;;;5107236;28;20923;-40
2021/05/28 03:07:26;;;;;;;6.47;5.32;;;8.60;99.90;;;;;;5108320;28;20592;-40
2021/05/28 03:09:51;;;;;;;6.35;5.53;;;8.60;99.90;;;;;;5107308;28;20415;-40
2021/05/28 03:12:17;;;;;;;5.93;5.10;;;8.70;99.90;;;;;;5107402;28;20112;-40
2021/05/28 03:14:42;;;;;;;6.80;5.30;;;8.70;99.90;;;;;;5107499;28;20484;-40
2021/05/28 03:17:08;;;;;;;6.95;5.43;;;8.70;99.90;;;;;;5108042;28;20019;-39
2021/05/28 03:19:42;;;;;;;5.90;4.82;;;8.80;99.90;;;;;;5107424;28;20043;-40
2021/05/28 03:24:43;;;;;;;7.65;5.43;;;8.80;99.90;;;;;;5106811;28;20474;-40
2021/05/28 03:27:08;;;;;;;6.50;5.20;;;8.90;99.90;;;;;;5106842;28;20328;-40
2021/05/28 03:29:34;;;;;;;6.80;5.03;;;8.80;99.90;;;;;;5107373;28;20436;-40
2021/05/28 03:31:59;;;;;;;5.80;5.18;;;8.90;99.90;;;;;;5107112;28;20538;-40
2021/05/28 03:34:25;;;;;;;9.13;5.60;;;8.90;99.90;;;;;;5107620;28;20499;-40
2021/05/28 03:36:51;;;;;;;9.00;5.25;;;8.90;99.90;;;;;;5106884;28;20023;-40
2021/05/28 03:39:17;;;;;;;10.32;5.30;;;8.90;99.90;;;;;;5107470;28;20023;-39
2021/05/28 03:41:45;;;;;;;6.63;5.57;;;8.90;99.90;;;;;;5106818;28;20111;-40
2021/05/28 03:44:11;;;;;;;6.13;5.25;;;8.90;99.90;;;;;;5107741;28;20138;-40
2021/05/28 03:46:42;;;;;;;11.15;5.60;;;8.90;99.90;;;;;;5106916;28;20406;-40
2021/05/28 03:49:08;;;;;;;7.35;5.50;;;8.90;99.90;;;;;;5107262;28;20114;-39
2021/05/28 03:51:34;;;;;;;13.15;5.25;;;8.90;99.90;;;;;;5107378;28;20114;-40
2021/05/28 03:54:02;;;;;;;5.95;4.88;;;8.90;99.90;;;;;;5106884;28;20434;-41
2021/05/28 03:56:28;;;;;;;10.88;4.95;;;9.00;99.90;;;;;;5107212;28;20031;-39
2021/05/28 03:58:53;;;;;;;6.65;5.50;;;9.00;99.90;;;;;;5107013;28;20038;-41
2021/05/28 04:01:19;;;;;;;6.88;5.65;;;8.90;99.90;;;;;;5106070;28;20023;-40
2021/05/28 04:03:44;;;;;;;6.43;5.43;;;9.00;99.90;;;;;;5106465;28;20040;-40
2021/05/28 04:06:10;;;;;;;6.72;5.10;;;9.00;99.90;;;;;;5106996;28;20044;-43
2021/05/28 04:08:35;;;;;;;8.77;5.13;;;9.00;99.90;;;;;;5106276;28;20422;-41
2021/05/28 04:11:01;;;;;;;6.63;5.53;;;9.00;99.90;;;;;;5106715;28;20506;-40
2021/05/28 04:13:33;;;;;;;6.10;5.50;;;9.10;99.90;;;;;;5107153;28;20462;-40
2021/05/28 04:15:59;;;;;;;5.57;4.97;;;9.10;99.90;;;;;;5106228;28;20468;-41
2021/05/28 04:18:31;;;;;;;8.23;5.15;;;9.10;99.90;;;;;;5107221;28;20080;-40
2021/05/28 04:20:56;;;;;;;6.13;4.88;;;9.10;99.90;;;;;;5106549;28;20463;-41
2021/05/28 04:23:22;;;;;;;5.78;5.18;;;9.20;99.90;;;;;;5106902;28;20047;-40
2021/05/28 04:25:49;;;;;;;7.43;5.47;;;9.20;99.90;;;;;;5105468;28;20143;-39
2021/05/28 04:28:15;;;;;;;8.63;5.40;;;9.20;99.90;;;;;;5106603;28;20060;-41
2021/05/28 04:30:41;;;;;;;6.72;5.50;;;9.20;99.90;;;;;;5106484;28;20080;-41
2021/05/28 04:33:07;;;;;;;11.95;5.78;;;9.30;99.90;;;;;;5106756;28;20064;-40
2021/05/28 04:35:32;;;;;;;6.35;5.70;;;9.30;99.90;;;;;;5106413;28;20107;-40
2021/05/28 04:37:58;;;;;;;8.40;5.90;;;9.40;99.90;;;;;;5107907;28;20102;-40
2021/05/28 04:40:26;;;;;;;8.88;5.85;;;9.40;99.90;;;;;;5111275;28;20047;-41
2021/05/28 04:42:52;;;;;;;8.65;6.10;;;9.40;99.90;;;;;;5109819;28;20023;-40
2021/05/28 04:45:17;;;;;;;10.38;6.65;;;9.40;99.90;;;;;;5111142;28;20180;-41
2021/05/28 04:47:43;;;;;;;13.02;6.03;;;9.40;99.90;;;;;;5110312;28;20532;-40
2021/05/28 04:50:09;;;;;;;9.32;6.53;;;9.40;99.90;;;;;;5110725;28;20024;-40
2021/05/28 04:52:35;;;;;;;9.95;6.22;;;9.40;99.90;;;;;;5110350;28;20028;-40
2021/05/28 04:55:00;;;;;;;13.55;6.65;;;9.40;99.90;;;;;;5110541;28;20024;-42
2021/05/28 04:57:26;;;;;;;6.97;5.68;;;9.40;99.90;;;;;;5110510;28;20505;-43
2021/05/28 04:59:51;;;;;;;14.88;6.18;;;9.50;99.90;;;;;;5109980;28;20042;-41
2021/05/28 05:02:17;;;;;;;8.80;6.18;;;9.60;99.90;;;;;;5110693;28;20054;-39
2021/05/28 05:04:42;;;;;;;10.68;5.75;;;9.60;99.90;;;;;;5109694;28;20054;-39
2021/05/28 05:07:11;;;;;;;14.77;6.10;;;9.60;99.90;;;;;;5110454;28;20059;-41
2021/05/28 05:09:36;;;;;;;15.15;6.00;;;9.60;99.90;;;;;;5110341;28;20031;-41
2021/05/28 05:12:03;;;;;;;15.15;6.28;;;9.60;99.90;;;;;;5109998;28;20030;-42
2021/05/28 05:14:28;;;;;;;11.65;6.40;;;9.50;99.90;;;;;;5109746;28;20195;-41
2021/05/28 05:16:54;;;;;;;8.25;6.20;;;9.50;99.90;;;;;;5110358;28;20140;-41
2021/05/28 05:19:19;;;;;;;10.43;6.30;;;9.50;99.90;;;;;;5110077;28;20023;-41
2021/05/28 05:21:45;;;;;;;10.60;6.07;;;9.50;99.90;;;;;;5109930;28;20439;-38
2021/05/28 05:24:11;;;;;;;12.38;7.22;;;9.50;99.90;;;;;;5109823;28;20135;-39
2021/05/28 05:26:40;;;;;;;8.07;6.30;;;9.50;99.90;;;;;;5109359;28;20043;-41
2021/05/28 05:29:06;;;;;;;8.73;6.22;;;9.60;99.90;;;;;;5109946;28;20067;-41
2021/05/28 05:31:31;;;;;;;7.72;5.93;;;9.70;99.90;;;;;;5109616;28;20064;-43
2021/05/28 05:33:57;;;;;;;10.40;6.28;;;9.70;99.90;;;;;;5109880;28;20119;-40
2021/05/28 05:36:24;;;;;;;10.07;6.05;;;9.80;99.90;;;;;;5110338;28;20359;-39
2021/05/28 05:38:50;;;;;;;7.78;6.18;;;9.80;99.90;;;;;;5108534;28;20031;-40
2021/05/28 05:41:16;;;;;;;6.75;6.05;;;9.90;99.90;;;;;;5109870;28;20016;-41
2021/05/28 05:43:41;;;;;;;6.93;5.75;;;10.00;99.90;;;;;;5109534;28;20027;-38
2021/05/28 05:46:07;;;;;;;9.15;5.70;;;10.10;99.90;;;;;;5109628;28;20385;-41
2021/05/28 05:48:32;;;;;;;7.32;6.05;;;10.20;99.90;;;;;;5108807;28;20412;-43
2021/05/28 05:50:58;;;;;;;7.72;6.65;;;10.30;99.90;;;;;;5108956;28;20089;-40
2021/05/28 05:53:23;;;;;;;7.00;5.88;;;10.30;99.90;;;;;;5109675;28;20030;-40
2021/05/28 05:55:49;;;;;;;8.20;6.05;;;10.40;99.90;;;;;;5109193;27;20016;-40
2021/05/28 05:58:15;;;;;;;6.38;5.63;;;10.40;99.90;;;;;;5109093;28;20051;-41
2021/05/28 06:00:40;;;;;;;8.75;5.90;;;10.40;99.90;;;;;;5109074;28;20561;-42
2021/05/28 06:03:06;;;;;;;6.32;5.60;;;10.30;99.90;;;;;;5107732;28;20035;-41
2021/05/28 06:05:32;;;;;;;5.68;4.95;;;10.30;99.90;;;;;;5107476;28;20051;-40
2021/05/28 06:08:02;;;;;;;6.05;5.03;;;10.30;99.90;;;;;;5108439;28;20035;-40
2021/05/28 06:10:27;;;;;;;6.18;5.53;;;10.30;99.90;;;;;;5108766;28;20051;-40
2021/05/28 06:12:53;;;;;;;5.85;5.25;;;10.30;99.90;;;;;;5108417;27;20051;-39
2021/05/28 06:15:19;;;;;;;5.97;5.38;;;10.40;99.90;;;;;;5107805;28;20096;-42
2021/05/28 06:17:45;;;;;;;6.60;5.07;;;10.40;99.90;;;;;;5108501;28;20035;-40
2021/05/28 06:20:10;;;;;;;4.88;4.38;;;10.60;99.90;;;;;;5108587;28;20035;-40
2021/05/28 06:22:36;;;;;;;5.75;5.22;;;10.70;99.90;;;;;;5107907;28;20046;-40
2021/05/28 06:25:02;;;;;;;5.53;4.90;;;10.80;99.90;;;;;;5107955;28;20104;-40
2021/05/28 06:27:28;;;;;;;5.10;4.55;;;10.80;99.90;;;;;;5108032;28;20023;-38
2021/05/28 06:29:53;;;;;;;6.57;5.03;;;10.80;99.90;;;;;;5105797;28;20524;-41
2021/05/28 06:32:22;;;;;;;5.55;4.93;;;10.90;99.90;;;;;;5108625;28;20028;-42
2021/05/28 06:34:47;;;;;;;6.70;5.88;;;11.00;99.90;;;;;;5107616;28;20200;-40
2021/05/28 06:37:16;;;;;;;6.18;5.35;;;11.10;99.90;;;;;;5108356;28;20064;-40
2021/05/28 06:39:41;;;;;;;5.13;4.63;;;11.20;99.90;;;;;;5108092;28;20460;-39
2021/05/28 06:42:07;;;;;;;6.50;4.78;;;11.30;99.90;;;;;;5108525;28;20031;-40
2021/05/28 06:44:33;;;;;;;5.95;4.68;;;11.50;99.90;;;;;;5108637;28;20506;-40
2021/05/28 06:46:58;;;;;;;5.03;4.53;;;11.50;99.90;;;;;;5108526;28;20099;-41
2021/05/28 06:49:27;;;;;;;5.03;4.55;;;11.60;99.90;;;;;;5108506;28;20420;-40
2021/05/28 06:51:52;;;;;;;4.63;4.22;;;11.60;99.90;;;;;;5108123;28;20011;-40
2021/05/28 06:54:18;;;;;;;5.05;4.55;;;11.70;99.90;;;;;;5109168;28;20048;-41
2021/05/28 06:56:43;;;;;;;5.18;4.72;;;11.80;99.90;;;;;;5107199;28;20677;-40
2021/05/28 06:59:11;;;;;;;6.68;5.30;;;11.90;99.90;;;;;;5109009;28;20046;-41
2021/05/28 07:01:36;;;;;;;5.75;5.18;;;12.00;99.90;;;;;;5107490;28;20024;-40
2021/05/28 07:04:03;;;;;;;5.97;5.28;;;12.10;99.90;;;;;;5107801;27;20061;-42
2021/05/28 07:06:31;;;;;;;5.07;4.57;;;12.10;99.90;;;;;;5107905;28;20051;-41
2021/05/28 07:08:57;;;;;;;4.80;4.40;;;12.20;99.90;;;;;;5096616;28;20115;-40
2021/05/28 07:11:24;;;;;;;4.38;3.97;;;12.20;99.90;;;;;;5107832;28;20422;-40
2021/05/28 07:13:49;;;;;;;4.88;4.47;;;12.20;99.90;;;;;;5108087;28;20046;-41
2021/05/28 07:16:16;;;;;;;4.80;4.40;;;12.20;99.90;;;;;;5108086;28;20020;-43
2021/05/28 07:18:42;;;;;;;5.03;4.53;;;12.20;99.90;;;;;;5105786;28;20544;-40
2021/05/28 07:21:09;;;;;;;4.82;4.43;;;12.20;99.90;;;;;;5108511;28;20062;-42
2021/05/28 07:23:34;;;;;;;8.48;7.25;;;12.20;99.90;;;;;;5107607;28;20071;-41
2021/05/28 07:26:01;;;;;;;6.25;5.28;;;12.10;99.90;;;;;;5108027;28;20067;-39
2021/05/28 07:28:32;;;;;;;5.25;4.75;;;12.00;99.90;;;;;;5107615;28;20020;-41
2021/05/28 07:30:58;;;;;;;5.22;4.72;;;11.90;99.90;;;;;;5107245;28;20123;-39
2021/05/28 07:33:24;;;;;;;4.95;4.55;;;11.80;99.90;;;;;;5107879;28;20028;-41
2021/05/28 07:35:50;;;;;;;5.55;4.47;;;11.70;99.90;;;;;;5107688;28;20399;-41
2021/05/28 07:38:15;;;;;;;4.68;4.28;;;11.60;99.90;;;;;;5107282;28;20094;-41
2021/05/28 07:40:41;;;;;;;4.68;4.22;;;11.60;99.90;;;;;;5107771;28;20028;-41
2021/05/28 07:43:07;;;;;;;5.00;4.50;;;11.60;99.90;;;;;;5108085;28;20047;-42
2021/05/28 07:45:33;;;;;;;3.78;3.47;;;11.50;99.90;;;;;;5107043;28;20103;-41
2021/05/28 07:47:59;;;;;;;4.22;3.83;;;11.60;99.90;;;;;;5107551;28;20106;-41
2021/05/28 07:50:25;;;;;;;4.22;3.83;;;11.50;99.90;;;;;;5107560;28;20491;-43
2021/05/28 07:52:50;;;;;;;4.07;3.67;;;11.50;99.90;;;;;;5106223;28;20463;-42
2021/05/28 07:55:16;;;;;;;4.15;3.75;;;11.50;99.90;;;;;;5107866;28;20024;-42
2021/05/28 07:57:42;;;;;;;4.30;3.90;;;11.50;99.90;;;;;;5106918;28;20037;-42
2021/05/28 08:00:08;;;;;;;8.27;4.05;;;11.50;99.90;;;;;;5107300;28;20024;-40
2021/05/28 08:02:34;;;;;;;4.65;4.18;;;11.50;99.90;;;;;;5107389;28;20114;-39
2021/05/28 08:05:00;;;;;;;5.72;5.20;;;11.50;99.90;;;;;;5106808;28;20127;-39
2021/05/28 08:07:25;;;;;;;4.53;4.13;;;11.50;99.90;;;;;;5107196;28;20480;-40
2021/05/28 08:09:51;;;;;;;5.00;4.40;;;11.50;99.90;;;;;;5106696;28;20037;-41
2021/05/28 08:12:17;;;;;;;5.72;3.90;;;11.50;99.90;;;;;;5107370;28;20130;-40
2021/05/28 08:14:44;;;;;;;5.18;4.10;;;11.50;99.90;;;;;;5106206;28;20066;-41
2021/05/28 08:17:09;;;;;;;4.60;4.20;;;11.50;99.90;;;;;;5107657;28;20157;-42
2021/05/28 08:19:35;;;;;;;4.07;3.53;;;11.60;99.90;;;;;;5106627;28;20641;-40
2021/05/28 08:22:03;;;;;;;4.40;3.95;;;11.60;99.90;;;;;;5106403;28;20565;-41
2021/05/28 08:24:29;;;;;;;4.38;3.92;;;11.60;99.90;;;;;;5106866;28;20100;-41
2021/05/28 08:26:58;;;;;;;4.28;3.88;;;11.70;99.90;;;;;;5107235;28;20546;-41
2021/05/28 08:29:23;;;;;;;4.40;4.00;;;11.70;99.90;;;;;;5106077;28;20206;-41
2021/05/28 08:31:49;;;;;;;4.82;4.35;;;11.80;99.90;;;;;;5106535;28;20122;-43
2021/05/28 08:34:14;;;;;;;3.92;3.60;;;11.90;99.90;;;;;;5107124;28;20028;-42
2021/05/28 08:36:39;;;;;;;4.25;3.25;;;12.00;99.90;;;;;;5104839;28;20035;-41
2021/05/28 08:39:05;;;;;;;3.50;3.20;;;12.00;99.90;;;;;;5106187;28;20032;-41
2021/05/28 08:41:34;;;;;;;3.50;3.20;;;12.10;99.90;;;;;;5106323;28;20102;-41
2021/05/28 08:44:00;;;;;;;4.35;3.80;;;12.20;99.90;;;;;;5106721;28;20850;-41
2021/05/28 08:46:25;;;;;;;3.95;3.47;;;12.30;99.90;;;;;;5107025;28;20019;-41
2021/05/28 08:48:51;;;;;;;3.97;3.38;;;12.30;99.90;;;;;;5106258;28;20019;-40
2021/05/28 08:51:18;;;;;;;4.10;3.15;;;12.40;99.90;;;;;;5106806;28;20027;-40
2021/05/28 08:53:43;;;;;;;6.10;3.50;;;12.50;99.90;;;;;;5106201;28;20058;-39
2021/05/28 08:56:10;;;;;;;3.60;3.30;;;12.60;99.90;;;;;;5106585;28;20051;-41
2021/05/28 08:58:37;;;;;;;4.22;3.65;;;12.60;99.90;;;;;;5106742;28;20016;-41
2021/05/28 09:01:08;;;;;;;3.78;2.95;;;12.80;99.90;;;;;;5105978;28;20092;-45
2021/05/28 09:03:37;;;;;;;3.50;3.20;;;12.90;99.90;;;;;;5106125;28;20051;-41
2021/05/28 09:06:15;;;;;;;4.03;3.63;;;13.00;99.90;;;;;;5106569;28;20454;-41
2021/05/28 09:08:41;;;;;;;4.35;3.65;;;13.10;99.90;;;;;;5106314;28;20031;-42
2021/05/28 09:11:07;;;;;;;3.30;3.00;;;13.20;99.90;;;;;;5106333;28;20020;-41
2021/05/28 09:13:34;;;;;;;3.38;3.08;;;13.30;99.90;;;;;;5106977;28;20024;-40
2021/05/28 09:16:24;;;;;;;3.72;2.88;;;13.30;99.90;;;;;;5106206;28;20026;-41
2021/05/28 09:18:57;;;;;;;3.60;3.30;;;13.50;99.90;;;;;;5106757;28;20516;-40
2021/05/28 09:21:34;;;;;;;3.50;3.00;;;13.50;99.80;;;;;;5106737;28;20451;-40
2021/05/28 09:24:04;;;;;;;2.80;2.60;;;13.60;99.80;;;;;;5107540;28;20218;-41
2021/05/28 09:26:31;;;;;;;2.30;2.10;;;13.60;99.80;;;;;;5110094;28;20446;-42
2021/05/28 09:28:58;;;;;;;2.90;2.30;;;13.70;99.70;;;;;;5110354;28;20027;-41
2021/05/28 09:31:25;;;;;;;3.63;2.95;;;13.70;99.50;;;;;;5110228;27;20571;-41
2021/05/28 09:33:54;;;;;;;2.67;2.47;;;13.80;99.30;;;;;;5109605;28;20023;-39
2021/05/28 09:36:22;;;;;;;2.90;2.60;;;13.90;99.30;;;;;;5110497;28;20101;-40
2021/05/28 09:39:08;;;;;;;3.72;2.80;;;14.00;99.10;;;;;;5109578;28;20043;-40
2021/05/28 09:41:51;;;;;;;2.47;2.28;;;14.00;98.80;;;;;;5109825;28;20678;-41
2021/05/28 09:44:21;;;;;;;2.55;2.00;;;14.20;98.90;;;;;;5100123;28;20100;-41
2021/05/28 09:47:06;;;;;;;2.63;2.20;;;14.20;98.70;;;;;;5108999;28;20445;-41
2021/05/28 09:49:35;;;;;;;2.83;2.40;;;14.20;98.70;;;;;;5100642;28;20024;-41
2021/05/28 09:52:12;;;;;;;2.00;1.77;;;14.20;98.60;;;;;;5109844;28;20107;-41
2021/05/28 09:55:09;;;;;;;3.47;1.70;;;14.30;98.50;;;;;;5099482;28;20031;-40
2021/05/28 09:57:40;;;;;;;3.22;2.33;;;14.30;98.40;;;;;;5109651;28;20148;-40
2021/05/28 10:00:07;;;;;;;3.53;1.92;;;14.30;97.70;;;;;;5110487;27;20490;-41
2021/05/28 10:02:36;;;;;;;5.18;2.08;;;14.40;97.50;;;;;;5108806;27;20028;-41
2021/05/28 10:05:02;;;;;;;6.65;2.10;;;14.50;97.50;;;;;;5109191;28;20036;-41
2021/05/28 10:07:29;;;;;;;2.90;2.25;;;14.60;97.40;;;;;;5108116;28;20019;-43
2021/05/28 10:09:56;;;;;;;3.63;2.65;;;14.70;97.30;;;;;;5108869;28;20035;-39
2021/05/28 10:12:23;;;;;;;3.67;3.10;;;14.80;96.70;;;;;;5109281;28;20080;-41
2021/05/28 10:14:51;;;;;;;4.22;3.60;;;14.80;96.90;;;;;;5108914;28;20051;-41
2021/05/28 10:17:20;;;;;;;7.18;3.50;;;14.90;96.70;;;;;;5109725;28;20024;-38
2021/05/28 10:19:47;;;;;;;3.63;3.05;;;15.00;96.80;;;;;;5107597;28;20580;-41
2021/05/28 10:22:16;;;;;;;3.97;2.22;;;15.00;96.90;;;;;;5110018;28;20055;-41
2021/05/28 10:24:42;;;;;;;3.75;2.03;;;15.10;96.70;;;;;;5108631;28;20038;-41
2021/05/28 10:27:10;;;;;;;3.70;2.33;;;15.20;96.50;;;;;;5109478;28;20020;-39
2021/05/28 10:29:39;;;;;;;3.42;2.70;;;15.20;96.50;;;;;;5109058;28;20038;-41
2021/05/28 10:32:13;;;;;;;2.95;2.65;;;15.20;96.30;;;;;;5109304;28;20371;-41
2021/05/28 10:35:14;;;;;;;6.30;3.40;;;15.30;96.30;;;;;;5107267;28;20100;-40
2021/05/28 10:37:41;;;;;;;4.18;3.08;;;15.30;96.30;;;;;;5107745;28;20058;-41
2021/05/28 10:40:26;;;;;;;3.47;2.78;;;15.40;96.10;;;;;;5108237;28;20047;-41
2021/05/28 10:43:03;;;;;;;3.17;2.78;;;15.40;95.80;;;;;;5106532;28;20016;-40
2021/05/28 10:45:53;;;;;;;3.03;2.72;;;15.40;95.90;;;;;;5107749;28;20039;-41
2021/05/28 10:48:42;;;;;;;3.42;3.13;;;15.40;95.80;;;;;;5101355;28;20101;-41
2021/05/28 10:51:12;;;;;;;3.75;2.72;;;15.40;95.70;;;;;;5109007;28;20047;-39
2021/05/28 10:53:38;;;;;;;3.40;3.10;;;15.60;95.60;;;;;;5108051;28;20059;-45
2021/05/28 10:56:08;;;;;;;4.90;2.97;;;15.70;95.40;;;;;;5107945;28;20023;-40
2021/05/28 10:58:52;;;;;;;3.63;3.30;;;15.80;95.20;;;;;;5109050;28;20099;-41
2021/05/28 11:01:48;;;;;;;3.42;2.83;;;15.90;95.30;;;;;;5108876;28;20057;-41
2021/05/28 11:04:17;;;;;;;4.07;2.65;;;16.00;95.10;;;;;;5108594;28;20035;-41
2021/05/28 11:06:55;;;;;;;2.50;2.30;;;16.00;95.10;;;;;;5107399;28;20075;-40
2021/05/28 11:09:38;;;;;;;2.45;2.03;;;16.00;95.20;;;;;;5107863;28;20603;-41
2021/05/28 11:12:14;;;;;;;3.95;3.17;;;16.00;95.20;;;;;;5097335;28;20020;-40
2021/05/28 11:15:08;;;;;;;3.45;3.15;;;16.00;94.80;;;;;;5108121;28;20038;-41
2021/05/28 11:17:53;;;;;;;2.97;2.70;;;16.10;94.60;;;;;;5101378;27;20091;-41
2021/05/28 11:20:34;;;;;;;2.63;2.42;;;16.30;94.50;;;;;;5120395;27;20035;-42
2021/05/28 11:23:10;;;;;;;2.40;2.20;;;16.30;94.50;;;;;;5107658;28;20038;-41
2021/05/28 11:25:49;;;;;;;2.75;2.30;;;16.40;94.50;;;;;;5108106;27;20035;-39
2021/05/28 11:28:15;;;;;;;2.33;1.50;;;16.50;94.30;;;;;;5108463;28;20051;-41
2021/05/28 11:31:02;;;;;;;2.53;1.60;;;16.50;94.10;;;;;;5107228;28;20028;-42
2021/05/28 11:33:54;;;;;;;2.00;1.60;;;16.50;93.60;;;;;;5108298;28;20031;-41
2021/05/28 11:36:41;;;;;;;1.52;1.30;;;16.60;93.40;;;;;;5108258;28;20036;-42
2021/05/28 11:39:20;;;;;;;1.38;1.27;;;16.60;93.40;;;;;;5107997;28;20510;-42
2021/05/28 11:42:01;;;;;;;1.65;1.45;;;16.60;92.90;;;;;;5107327;28;20486;-41
2021/05/28 11:44:29;;;;;;;2.45;1.50;;;16.70;93.10;;;;;;5087194;28;20040;-41
2021/05/28 11:46:55;;;;;;;3.10;1.83;;;16.70;93.20;;;;;;5101002;28;20131;-41
2021/05/28 11:49:23;;;;;;;1.95;1.80;;;16.70;92.90;;;;;;5108020;28;20407;-43
2021/05/28 11:52:05;;;;;;;1.90;1.60;;;16.80;92.50;;;;;;5106677;28;20471;-42
2021/05/28 11:54:39;;;;;;;2.33;1.73;;;16.90;92.20;;;;;;5107655;28;20023;-40
2021/05/28 11:57:13;;;;;;;1.83;1.50;;;16.90;92.10;;;;;;5107735;28;20020;-41
2021/05/28 11:59:57;;;;;;;2.10;1.90;;;16.90;92.00;;;;;;5107177;28;20045;-42
2021/05/28 12:02:51;;;;;;;2.13;1.92;;;17.00;91.80;;;;;;5107864;28;20031;-42
2021/05/28 12:05:17;;;;;;;2.17;1.98;;;17.10;91.30;;;;;;5086960;28;20087;-41
2021/05/28 12:07:44;;;;;;;1.85;1.45;;;17.20;91.20;;;;;;5101973;28;20082;-41
2021/05/28 12:10:14;;;;;;;2.80;1.85;;;17.30;91.30;;;;;;5108020;28;20035;-42
2021/05/28 12:12:53;;;;;;;3.42;1.98;;;17.40;90.80;;;;;;5106927;28;20016;-40
2021/05/28 12:15:24;;;;;;;2.95;1.80;;;17.40;90.90;;;;;;5107264;28;20485;-41
2021/05/28 12:17:51;;;;;;;1.98;1.58;;;17.50;90.10;;;;;;5106927;28;20023;-42
2021/05/28 12:20:20;;;;;;;2.72;2.20;;;17.60;90.20;;;;;;5107171;28;20019;-41
2021/05/28 12:23:07;;;;;;;2.13;1.92;;;17.70;90.00;;;;;;5106364;28;20019;-44
2021/05/28 12:25:36;;;;;;;2.05;1.80;;;17.80;90.10;;;;;;5107079;28;20028;-41
2021/05/28 12:28:32;;;;;;;1.92;1.83;;;17.90;90.00;;;;;;5106888;28;20437;-41
2021/05/28 12:31:19;;;;;;;3.75;1.85;;;17.90;90.20;;;;;;5107290;28;20588;-42
2021/05/28 12:33:49;;;;;;;1.90;1.70;;;18.00;90.10;;;;;;5095575;28;20383;-41
2021/05/28 12:36:15;;;;;;;2.03;1.83;;;18.00;88.70;;;;;;5087198;28;20032;-41
2021/05/28 12:38:50;;;;;;;1.70;1.60;;;18.10;86.20;;;;;;5101372;28;20027;-41
2021/05/28 12:41:21;;;;;;;1.85;1.55;;;18.10;88.00;;;;;;5107136;28;20028;-39
2021/05/28 12:43:49;;;;;;;1.60;1.50;;;18.20;87.70;;;;;;5106125;28;20032;-42
2021/05/28 12:46:20;;;;;;;2.05;1.33;;;18.40;88.00;;;;;;5107272;28;20020;-41
2021/05/28 12:48:55;;;;;;;1.63;1.40;;;18.40;87.90;;;;;;5106258;28;20038;-40
2021/05/28 12:51:43;;;;;;;19.10;10.45;;;18.50;87.30;;;;;;5107396;28;20027;-41
2021/05/28 12:54:29;;;;;;;9.43;5.43;;;18.60;86.40;;;;;;5107099;28;20020;-41
2021/05/28 12:57:00;;;;;;;4.47;3.60;;;18.70;86.90;;;;;;5086542;28;20120;-41
2021/05/28 12:59:31;;;;;;;4.77;2.93;;;18.80;86.80;;;;;;5104704;28;20035;-41
2021/05/28 13:01:58;;;;;;;2.88;2.55;;;18.80;87.00;;;;;;5110354;28;20023;-40